Time;durP1;ratioP1;P1;durP2;ratioP2;P2;SDS_P1;SDS_P2;PMS_P1;PMS_P2;Temp;Humidity;BMP_temperature;BMP_pressure;BME280_temperature;BME280_humidity;BME280_pressure;Samples;Min_cycle;Max_cycle;Signal;HPM_P1;HPM_P2
2021/04/15 00:01:01;;;;;;;12.50;6.72;;;2.10;99.90;;;3.07;83.57;101948.44;4818198;29;20456;-83
2021/04/15 00:03:31;;;;;;;12.02;6.60;;;2.10;99.90;;;3.01;83.31;101954.22;4834589;29;20041;-82
2021/04/15 00:06:07;;;;;;;10.75;6.85;;;2.00;99.90;;;2.91;83.42;101957.81;4823355;29;20030;-81
2021/04/15 00:08:33;;;;;;;12.70;7.07;;;1.90;99.90;;;2.83;83.34;101954.75;4839049;29;20073;-82
2021/04/15 00:11:00;;;;;;;11.98;6.90;;;1.80;99.90;;;2.77;83.84;101951.16;4817503;29;20102;-83
2021/04/15 00:13:39;;;;;;;12.57;7.38;;;1.80;99.90;;;2.72;84.06;101953.94;4815444;29;20066;-80
2021/04/15 00:16:07;;;;;;;10.43;7.63;;;1.70;99.90;;;2.71;84.20;101960.53;4831492;29;20035;-84
2021/04/15 00:18:34;;;;;;;9.50;6.93;;;1.70;99.90;;;2.67;84.10;101956.66;4817726;29;20100;-81
2021/04/15 00:21:03;;;;;;;12.73;7.07;;;1.70;99.90;;;2.70;84.21;101949.81;4831861;29;20031;-84
2021/04/15 00:23:30;;;;;;;12.05;7.22;;;1.70;99.90;;;2.71;84.39;101938.47;4818351;29;20023;-85
2021/04/15 00:25:57;;;;;;;10.88;7.25;;;1.70;99.90;;;2.71;84.38;101945.91;4818121;29;20047;-83
2021/04/15 00:28:23;;;;;;;11.93;7.95;;;1.70;99.90;;;2.65;84.44;101940.41;4820229;29;20066;-83
2021/04/15 00:30:50;;;;;;;14.70;8.05;;;1.60;99.90;;;2.57;84.49;101943.69;4827019;29;20053;-81
2021/04/15 00:33:19;;;;;;;10.48;7.70;;;1.60;99.90;;;2.49;84.60;101935.97;4825852;29;20076;-81
2021/04/15 00:35:47;;;;;;;10.98;6.72;;;1.60;99.90;;;2.43;84.76;101944.50;4885003;24;20660;-81
2021/04/15 00:38:17;;;;;;;10.23;7.32;;;1.50;99.90;;;2.30;85.18;101940.34;4821216;29;20047;-82
2021/04/15 00:40:47;;;;;;;13.27;7.53;;;1.40;99.90;;;2.12;85.26;101929.78;4831491;29;20042;-83
2021/04/15 00:43:14;;;;;;;13.65;7.20;;;1.20;99.90;;;2.06;85.41;101934.47;4815612;29;20087;-82
2021/04/15 00:45:47;;;;;;;12.02;7.03;;;1.10;99.90;;;2.00;85.71;101932.78;4831864;29;20038;-83
2021/04/15 00:48:43;;;;;;;11.20;7.10;;;1.10;99.90;;;1.97;85.92;101927.81;4832548;29;20045;-83
2021/04/15 00:51:32;;;;;;;10.73;7.27;;;1.00;99.90;;;1.96;86.06;101930.84;4815615;29;20035;-83
2021/04/15 00:54:17;;;;;;;12.13;7.15;;;1.00;99.90;;;1.98;86.20;101934.16;4802497;29;20415;-84
2021/04/15 00:56:43;;;;;;;11.25;7.43;;;1.00;99.90;;;2.00;86.45;101940.22;4797140;29;20042;-82
2021/04/15 00:59:10;;;;;;;12.27;7.82;;;1.00;99.90;;;2.07;86.35;101935.31;4812330;29;20411;-85
2021/04/15 01:01:36;;;;;;;11.20;7.47;;;1.10;99.90;;;2.14;86.61;101927.63;4797812;29;20079;-82
2021/04/15 01:04:03;;;;;;;13.02;7.82;;;1.20;99.90;;;2.27;86.54;101927.09;4814651;29;20058;-82
2021/04/15 01:06:30;;;;;;;8.98;6.50;;;1.30;99.90;;;2.37;86.56;101923.53;4798175;29;20038;-83
2021/04/15 01:08:59;;;;;;;10.77;7.60;;;1.40;99.90;;;2.47;86.43;101943.66;4808610;29;20065;-83
2021/04/15 01:12:04;;;;;;;13.70;8.00;;;1.40;99.90;;;2.53;86.38;101934.34;4819258;29;20047;-82
2021/04/15 02:21:05;;;;;;;11.63;7.05;;;1.30;99.90;;;2.20;87.04;101932.03;4830474;29;20053;-82
2021/04/15 02:23:56;;;;;;;12.70;6.93;;;1.30;99.90;;;2.19;87.10;101924.84;4826352;29;20031;-82
2021/04/15 02:26:40;;;;;;;8.70;6.43;;;1.20;99.90;;;2.16;87.27;101930.09;4796540;29;20043;-82
2021/04/15 02:29:27;;;;;;;10.27;6.75;;;1.20;99.90;;;2.01;87.07;101925.38;4797099;29;20073;-82
2021/04/15 02:32:07;;;;;;;10.13;6.60;;;1.10;99.90;;;1.92;87.44;101921.47;4816725;29;20035;-81
2021/04/15 02:34:54;;;;;;;12.30;7.18;;;1.00;99.90;;;1.92;87.68;101935.25;4831372;29;20106;-82
2021/04/15 02:37:35;;;;;;;11.75;6.82;;;1.00;99.90;;;1.90;87.82;101940.19;4815029;29;20503;-82
2021/04/15 02:40:14;;;;;;;12.82;7.75;;;0.90;99.90;;;1.92;87.75;101932.50;4814651;29;20050;-82
2021/04/15 02:42:44;;;;;;;10.73;6.80;;;1.00;99.90;;;1.89;87.73;101928.38;4831506;29;20038;-81
2021/04/15 02:45:32;;;;;;;11.30;6.78;;;1.00;99.90;;;1.92;88.11;101936.09;4815033;29;20030;-83
2021/04/15 02:48:24;;;;;;;10.75;6.93;;;1.00;99.90;;;1.84;88.09;101925.56;4815045;29;20054;-83
2021/04/15 02:51:01;;;;;;;9.07;6.93;;;0.90;99.90;;;1.79;88.11;101939.34;4797016;29;20084;-82
2021/04/15 02:53:37;;;;;;;9.35;6.40;;;0.90;99.90;;;1.75;88.29;101934.63;4796622;29;20042;-83
2021/04/15 02:56:25;;;;;;;10.48;7.00;;;0.80;99.90;;;1.77;88.74;101937.91;4796435;29;20068;-82
2021/04/15 02:59:13;;;;;;;9.90;5.47;;;0.80;99.90;;;1.83;88.76;101931.38;4796111;29;20035;-84
2021/04/15 03:01:50;;;;;;;8.95;6.50;;;0.90;99.90;;;1.84;89.44;101935.75;4796234;29;20035;-81
2021/04/15 03:04:23;;;;;;;9.15;6.45;;;0.90;99.90;;;1.89;89.27;101933.88;4811800;29;20035;-84
2021/04/15 03:06:57;;;;;;;10.27;6.22;;;0.90;99.90;;;1.96;89.78;101934.44;4795514;29;20062;-84
2021/04/15 03:09:26;;;;;;;10.48;5.90;;;1.00;99.90;;;2.03;89.65;101931.41;4810397;29;20045;-85
2021/04/15 03:12:26;;;;;;;10.52;6.38;;;1.00;99.90;;;2.10;89.54;101934.75;4829028;29;20030;-83
2021/04/15 03:15:10;;;;;;;13.50;7.05;;;1.10;99.90;;;2.15;89.50;101932.03;4830138;29;20050;-83
2021/04/15 03:17:54;;;;;;;10.38;6.35;;;1.20;99.90;;;2.18;89.18;101942.53;4831121;29;20042;-82
2021/04/15 03:21:09;;;;;;;9.38;5.55;;;1.20;99.90;;;2.14;89.07;101938.63;4831591;29;20129;-83
2021/04/15 03:23:59;;;;;;;10.15;6.20;;;1.10;99.90;;;2.07;89.27;101938.06;4808093;29;20038;-84
2021/04/15 03:26:42;;;;;;;9.13;6.60;;;1.10;99.90;;;2.07;89.03;101943.56;4813713;29;20114;-84
2021/04/15 03:29:37;;;;;;;12.48;5.95;;;1.10;99.90;;;2.00;89.21;101938.31;4796847;29;20042;-82
2021/04/15 03:32:40;;;;;;;12.05;7.05;;;1.00;99.90;;;1.90;89.30;101946.53;4798333;29;20043;-83
2021/04/15 03:35:36;;;;;;;11.38;6.32;;;0.90;99.90;;;1.82;89.10;101943.47;4798751;29;20164;-83
2021/04/15 03:38:24;;;;;;;11.10;6.67;;;0.90;99.90;;;1.73;89.39;101940.41;4799489;29;20039;-83
2021/04/15 03:41:09;;;;;;;15.77;7.18;;;0.80;99.90;;;1.70;89.36;101940.13;4799389;29;20062;-83
2021/04/15 03:43:46;;;;;;;11.95;6.32;;;0.70;99.90;;;1.64;89.72;101954.97;4818340;29;20069;-82
2021/04/15 03:46:39;;;;;;;14.02;6.70;;;0.70;99.90;;;1.59;89.80;101950.25;4811430;29;20054;-85
2021/04/15 03:49:14;;;;;;;10.23;6.68;;;0.70;99.90;;;1.50;89.75;101946.34;4813631;29;20039;-83
2021/04/15 03:51:51;;;;;;;11.45;6.68;;;0.60;99.90;;;1.41;90.15;101943.22;4796562;29;20316;-83
2021/04/15 03:54:34;;;;;;;14.02;7.15;;;0.50;99.90;;;1.35;90.14;101941.53;4796698;29;20057;-82
2021/04/15 03:57:05;;;;;;;12.82;7.03;;;0.50;99.90;;;1.39;90.86;101950.09;4811924;29;20326;-82
2021/04/15 03:59:37;;;;;;;13.70;6.68;;;0.50;99.90;;;1.38;90.23;101953.97;4811493;29;20042;-83
2021/04/15 04:02:20;;;;;;;14.32;7.07;;;0.50;99.90;;;1.33;90.45;101951.16;4813948;29;20038;-82
2021/04/15 04:05:00;;;;;;;13.00;7.30;;;0.40;99.90;;;1.26;90.67;101954.16;4817140;29;20030;-82
2021/04/15 04:07:43;;;;;;;11.00;7.32;;;0.30;99.90;;;1.23;90.72;101954.69;4797250;29;20103;-82
2021/04/15 04:10:38;;;;;;;11.40;6.93;;;0.30;99.90;;;1.15;90.82;101954.34;4779095;30;20157;-83
2021/04/15 04:13:36;;;;;;;10.18;6.95;;;0.30;99.90;;;1.11;90.93;101959.56;4794271;29;20030;-84
2021/04/15 04:16:15;;;;;;;14.93;7.47;;;0.20;99.90;;;1.15;91.05;101955.19;4813320;29;20027;-83
2021/04/15 04:19:38;;;;;;;13.35;7.70;;;0.20;99.90;;;1.12;91.10;101961.22;4811219;29;20071;-83
2021/04/15 04:23:02;;;;;;;16.02;7.93;;;0.20;99.90;;;1.08;91.30;101960.09;4813832;29;20127;-83
2021/04/15 04:25:45;;;;;;;14.88;7.93;;;0.10;99.90;;;1.06;91.15;101959.50;4792511;29;20471;-83
2021/04/15 04:28:36;;;;;;;15.98;8.13;;;0.10;99.90;;;1.04;91.42;101965.28;4796835;29;20031;-85
2021/04/15 04:31:19;;;;;;;17.40;8.55;;;0.10;99.90;;;1.05;91.47;101966.94;4777041;30;20476;-85
2021/04/15 04:33:53;;;;;;;14.48;7.40;;;0.10;99.90;;;1.00;91.49;101961.38;4815104;29;20026;-84
2021/04/15 04:36:25;;;;;;;11.73;7.57;;;0.10;99.90;;;0.95;91.57;101966.84;4827824;29;20034;-86
2021/04/15 04:38:58;;;;;;;13.30;7.68;;;0.00;99.90;;;0.90;91.71;101966.81;4812095;29;20157;-85
2021/04/15 04:41:51;;;;;;;15.30;8.60;;;0.00;99.90;;;0.89;91.83;101973.41;4827682;29;20058;-84
2021/04/15 04:44:47;;;;;;;14.63;8.60;;;-0.10;99.90;;;0.91;91.84;101970.38;4792347;29;20034;-84
2021/04/15 04:47:43;;;;;;;14.43;8.05;;;0.00;99.90;;;0.89;92.04;101975.34;4792588;29;20467;-82
2021/04/15 04:50:32;;;;;;;13.35;7.55;;;0.00;99.90;;;0.84;91.85;101975.25;4808628;29;20041;-82
2021/04/15 04:53:25;;;;;;;14.35;7.32;;;-0.10;99.90;;;0.75;91.71;101977.66;4795608;29;20035;-85
2021/04/15 04:56:26;;;;;;;15.43;8.73;;;-0.20;99.90;;;0.81;92.09;101982.13;4798044;29;20099;-82
2021/04/15 04:59:18;;;;;;;17.05;7.85;;;-0.10;99.90;;;0.82;91.76;101992.06;4809266;29;20045;-82
2021/04/15 05:01:44;;;;;;;20.40;9.00;;;-0.10;99.90;;;0.76;91.55;101986.75;4808063;29;20035;-85
2021/04/15 05:04:12;;;;;;;19.42;8.38;;;-0.20;99.90;;;0.72;91.65;101980.13;4802186;29;20113;-85
2021/04/15 05:06:44;;;;;;;16.13;7.80;;;-0.20;99.90;;;0.69;91.38;101989.72;4810545;29;20038;-84
2021/04/15 05:09:32;;;;;;;15.88;8.18;;;-0.30;99.90;;;0.74;91.48;101994.44;4798801;29;20043;-82
2021/04/15 05:12:00;;;;;;;16.92;8.32;;;-0.20;99.90;;;0.77;91.52;101996.69;4813550;29;20042;-84
2021/04/15 05:14:29;;;;;;;14.02;8.35;;;-0.20;99.90;;;0.83;91.53;101996.47;4828547;29;20050;-85
2021/04/15 05:17:32;;;;;;;22.60;8.82;;;-0.10;99.90;;;0.92;91.33;102005.06;4812678;29;20523;-85
2021/04/15 05:20:21;;;;;;;19.02;8.77;;;-0.10;99.90;;;1.01;91.58;102006.25;4827310;29;20562;-84
2021/04/15 05:23:18;;;;;;;17.63;9.35;;;0.00;99.90;;;1.06;91.32;102006.28;4827158;29;20095;-85
2021/04/15 05:26:17;;;;;;;15.35;9.50;;;0.00;99.90;;;1.15;91.51;101998.38;4811137;29;20037;-85
2021/04/15 05:28:49;;;;;;;20.08;10.18;;;0.10;99.90;;;1.19;91.02;102008.59;4804102;29;20031;-85
2021/04/15 05:31:24;;;;;;;15.20;9.20;;;0.20;99.90;;;1.20;90.82;102013.00;4799458;29;20170;-84
2021/04/15 05:33:53;;;;;;;15.83;9.20;;;0.10;99.90;;;1.23;90.99;102006.97;4812091;29;20042;-84
2021/04/15 05:36:36;;;;;;;19.88;9.00;;;0.20;99.90;;;1.31;90.70;102011.19;4803880;29;20292;-84
2021/04/15 05:39:11;;;;;;;15.70;8.38;;;0.20;99.90;;;1.37;90.49;102010.13;4814052;29;20066;-84
2021/04/15 05:41:49;;;;;;;18.27;9.30;;;0.30;99.90;;;1.51;90.68;102014.88;4799570;29;20062;-84
2021/04/15 05:44:27;;;;;;;21.52;10.80;;;0.40;99.90;;;1.69;90.75;102007.31;4821845;29;20373;-85
2021/04/15 05:46:55;;;;;;;18.23;10.32;;;0.60;99.90;;;1.92;90.78;102016.00;4816064;29;20058;-84
2021/04/15 05:49:47;;;;;;;22.70;11.20;;;0.70;99.90;;;2.13;91.02;102017.75;4817104;29;20064;-85
2021/04/15 05:52:40;;;;;;;17.38;9.60;;;0.90;99.90;;;2.39;91.13;102009.56;4820110;29;20094;-84
2021/04/15 05:55:30;;;;;;;15.63;9.68;;;1.10;99.90;;;2.70;91.29;102005.78;4830904;29;20030;-85
2021/04/15 05:58:19;;;;;;;21.33;10.55;;;1.30;99.90;;;3.04;91.00;102012.47;4811236;29;20035;-85
2021/04/15 06:01:12;;;;;;;15.98;10.15;;;1.60;99.90;;;3.55;90.07;102009.69;4800481;29;20035;-82
2021/04/15 06:03:58;;;;;;;18.80;10.30;;;1.90;99.90;;;3.99;88.69;102007.09;4817302;29;20224;-84
2021/04/15 06:06:40;;;;;;;20.88;9.98;;;2.20;99.90;;;4.38;86.42;102012.75;4812972;29;20034;-83
2021/04/15 06:09:08;;;;;;;18.83;8.40;;;2.60;99.90;;;4.73;85.38;102013.38;4796867;29;20035;-84
2021/04/15 06:12:10;;;;;;;19.55;10.27;;;2.90;99.90;;;5.11;83.45;102016.44;4817018;29;20014;-85
2021/04/15 06:14:53;;;;;;;17.98;9.15;;;3.20;99.90;;;5.49;81.59;102017.53;4819261;29;20031;-82
2021/04/15 06:17:39;;;;;;;16.52;8.68;;;3.60;99.90;;;5.90;79.41;102027.13;4819223;29;20031;-83
2021/04/15 06:20:42;;;;;;;14.68;7.90;;;4.10;99.90;;;6.25;77.48;102034.22;4809697;29;20035;-82
2021/04/15 06:23:27;;;;;;;15.15;8.40;;;4.40;99.90;;;6.53;75.88;102027.75;4819653;29;20035;-84
2021/04/15 06:25:56;;;;;;;13.45;7.43;;;4.70;99.90;;;6.73;74.79;102030.25;4801967;29;20038;-85
2021/04/15 06:28:42;;;;;;;14.50;7.57;;;5.00;99.90;;;6.97;74.09;102026.59;4827795;29;20045;-83
2021/04/15 06:31:42;;;;;;;12.70;7.57;;;5.20;99.90;;;7.16;71.71;102027.41;4820235;29;20031;-85
2021/04/15 06:34:12;;;;;;;12.35;7.38;;;5.40;99.90;;;7.20;70.33;102029.25;4810924;29;20035;-86
2021/04/15 06:36:49;;;;;;;14.75;7.72;;;5.50;99.90;;;7.23;70.01;102030.59;4807993;29;20184;-85
2021/04/15 06:39:38;;;;;;;10.65;7.50;;;5.60;99.90;;;7.22;70.45;102032.59;4804554;29;20055;-85
2021/04/15 06:42:35;;;;;;;15.88;8.55;;;5.70;99.90;;;7.28;69.45;102030.53;4820350;29;20031;-83
2021/04/15 06:45:25;;;;;;;19.13;8.65;;;5.70;99.90;;;7.36;69.35;102024.28;4826812;29;20035;-86
2021/04/15 06:48:36;;;;;;;16.38;7.90;;;5.80;99.90;;;7.60;69.05;102029.72;4851947;24;20034;-85
2021/04/15 06:52:00;;;;;;;18.42;8.70;;;6.00;99.90;;;7.48;67.82;102032.16;4799285;29;20061;-84
2021/04/15 06:55:17;;;;;;;16.17;9.25;;;6.00;99.90;;;7.57;67.06;102022.81;4837167;29;20071;-83
2021/04/15 06:58:26;;;;;;;20.30;9.38;;;6.10;99.90;;;7.78;68.30;102023.25;4820415;29;20472;-84
2021/04/15 07:01:30;;;;;;;20.13;9.02;;;6.20;99.90;;;8.01;66.15;102032.56;4821614;29;20735;-85
2021/04/15 07:04:16;;;;;;;19.73;8.65;;;6.40;99.90;;;7.93;66.13;102028.53;4823869;29;20090;-82
2021/04/15 07:07:05;;;;;;;16.73;8.25;;;6.40;99.90;;;8.01;66.40;102036.19;4830185;29;20041;-83
2021/04/15 07:10:13;;;;;;;17.75;8.40;;;6.50;99.90;;;8.13;64.92;102032.88;4837473;29;20384;-83
2021/04/15 07:13:25;;;;;;;22.83;9.50;;;6.70;99.90;;;8.16;64.81;102035.88;4821585;29;20097;-82
2021/04/15 07:16:38;;;;;;;20.48;7.95;;;6.70;99.90;;;8.38;64.57;102024.09;4838821;29;20059;-82
2021/04/15 07:19:37;;;;;;;;;;;;;;;;;;;;;
2021/04/15 07:23:27;;;;;;;18.45;8.23;;;7.20;99.90;;;9.02;61.28;102033.25;4838371;29;20065;-83
2021/04/15 07:26:21;;;;;;;10.73;6.88;;;7.40;99.90;;;8.96;61.17;102033.34;4818841;29;20026;-86
2021/04/15 07:29:42;;;;;;;14.88;7.38;;;7.50;99.90;;;9.38;59.56;102029.28;4818802;29;20026;-85
2021/04/15 07:32:53;;;;;;;13.73;7.28;;;7.80;99.90;;;9.70;58.31;102033.75;4819933;29;20069;-82
2021/04/15 07:36:30;;;;;;;13.95;6.55;;;8.10;99.90;;;10.39;56.29;102040.53;4839698;29;20034;-82
2021/04/15 07:39:27;;;;;;;9.15;6.43;;;8.40;99.90;;;10.59;56.25;102036.31;4838911;29;20049;-84
2021/04/15 07:42:35;;;;;;;13.25;6.30;;;8.80;99.90;;;10.92;54.24;102040.31;4837503;29;20034;-85
2021/04/15 07:45:09;;;;;;;8.55;4.57;;;9.00;99.90;;;11.07;54.34;102042.66;4827010;29;20051;-83
2021/04/15 07:48:09;;;;;;;11.20;5.97;;;9.30;99.90;;;11.29;51.91;102038.03;4816685;29;20039;-84
2021/04/15 07:51:08;;;;;;;10.32;5.10;;;9.50;99.90;;;11.14;51.58;102049.72;4823799;29;20030;-85
2021/04/15 07:54:29;;;;;;;10.73;5.13;;;9.50;99.90;;;11.11;50.22;102040.00;4819620;29;20034;-86
2021/04/15 07:57:31;;;;;;;10.30;3.28;;;9.50;99.90;;;11.04;48.50;102045.28;4830626;29;20042;-80
2021/04/15 08:00:46;;;;;;;9.85;3.63;;;9.40;96.80;;;10.59;49.23;102042.72;4823452;29;20045;-84
2021/04/15 08:04:11;;;;;;;5.32;3.72;;;9.20;96.10;;;10.70;49.92;102050.78;4843534;29;20089;-82
2021/04/15 08:07:17;;;;;;;9.73;3.55;;;9.00;97.60;;;10.64;48.55;102050.13;4812938;29;20060;-84
2021/04/15 08:10:49;;;;;;;9.73;3.47;;;9.10;94.50;;;11.28;47.50;102055.97;4838300;29;20030;-84
2021/04/15 08:14:12;;;;;;;7.38;3.75;;;9.60;92.80;;;11.43;46.22;102050.69;4817202;29;20034;-84
2021/04/15 08:17:32;;;;;;;11.65;4.70;;;9.90;90.50;;;11.12;48.15;102058.44;4840113;29;20294;-83
2021/04/15 08:20:35;;;;;;;11.13;4.07;;;9.60;92.70;;;11.82;45.97;102057.25;4842583;29;20022;-84
2021/04/15 08:23:24;;;;;;;8.95;4.47;;;9.90;91.50;;;12.03;45.38;102055.41;4825640;29;20055;-80
2021/04/15 08:26:22;;;;;;;9.38;4.72;;;10.20;88.60;;;12.76;45.53;102059.69;4827590;29;20045;-83
2021/04/15 08:29:19;;;;;;;8.23;4.22;;;10.80;90.20;;;13.07;44.25;102053.69;4825675;29;20047;-84
2021/04/15 08:32:28;;;;;;;7.47;3.70;;;11.10;85.30;;;12.26;44.70;102064.41;4820501;29;20034;-83
2021/04/15 08:35:55;;;;;;;8.23;3.05;;;10.70;83.60;;;12.44;43.87;102060.34;4835040;29;20471;-84
2021/04/15 08:39:15;;;;;;;9.63;3.50;;;10.60;80.90;;;12.43;43.87;102061.50;4814846;29;20031;-85
2021/04/15 08:42:51;;;;;;;9.00;3.53;;;10.80;80.30;;;12.18;45.23;102059.63;4831570;29;20022;-87
2021/04/15 08:45:38;;;;;;;8.30;3.67;;;10.50;83.40;;;12.60;44.92;102067.88;4773612;30;20044;-86
2021/04/15 08:48:54;;;;;;;7.07;3.38;;;10.90;82.40;;;12.27;44.28;102068.81;4767329;30;20048;-83
2021/04/15 08:52:35;;;;;;;8.30;3.35;;;10.80;79.60;;;11.88;43.20;102067.16;4816263;29;20482;-82
2021/04/15 08:55:48;;;;;;;7.68;3.28;;;10.40;77.60;;;10.97;45.31;102067.31;4814041;29;20030;-83
2021/04/15 08:58:54;;;;;;;7.40;5.57;;;9.60;79.80;;;10.90;45.86;102064.16;4816173;29;20038;-83
2021/04/15 09:01:43;;;;;;;7.68;5.28;;;9.60;80.90;;;11.20;44.80;102070.78;4827735;29;20034;-82
2021/04/15 09:04:46;;;;;;;12.60;4.68;;;9.70;80.30;;;11.07;45.86;102065.03;4820740;29;20030;-84
2021/04/15 09:07:37;;;;;;;7.75;4.15;;;9.60;81.70;;;11.77;44.07;102055.47;4834239;29;20103;-83
2021/04/15 09:10:40;;;;;;;6.80;3.50;;;10.10;80.20;;;12.11;43.04;102062.94;4816257;29;20057;-84
2021/04/15 09:13:41;;;;;;;13.48;4.22;;;10.70;75.50;;;13.26;41.32;102070.13;4804889;29;20026;-84
2021/04/15 09:16:16;;;;;;;9.25;2.30;;;11.60;73.90;;;13.45;39.68;102059.22;4832310;29;20117;-83
2021/04/15 09:19:00;;;;;;;6.95;2.95;;;11.80;69.00;;;12.55;41.16;102067.25;4810915;29;20071;-82
2021/04/15 09:21:54;;;;;;;10.20;2.65;;;11.40;69.20;;;12.04;41.84;102071.06;4816335;29;20030;-83
2021/04/15 09:25:00;;;;;;;5.03;2.15;;;10.70;70.90;;;10.88;43.78;102066.47;4830296;29;20034;-80
2021/04/15 09:28:56;;;;;;;3.33;1.60;;;10.00;73.20;;;11.33;42.21;102072.59;4831867;29;20026;-82
2021/04/15 09:32:12;;;;;;;5.53;1.88;;;10.20;72.00;;;11.36;41.31;102072.78;4831030;29;20461;-83
2021/04/15 09:35:38;;;;;;;7.50;2.77;;;10.10;69.70;;;11.42;43.53;102057.47;4831814;29;20042;-84
2021/04/15 09:39:23;;;;;;;4.03;1.70;;;9.90;74.80;;;11.58;42.07;102064.19;4762020;30;20294;-83
2021/04/15 09:42:40;;;;;;;6.28;2.05;;;10.50;70.30;;;10.83;42.03;102070.25;4733762;30;20441;-81
2021/04/15 09:45:47;;;;;;;6.43;1.88;;;9.70;68.50;;;10.18;43.36;102069.38;4729396;30;20078;-82
2021/04/15 09:48:42;;;;;;;3.72;1.92;;;9.30;71.30;;;10.06;44.53;102065.16;4832768;29;20049;-81
2021/04/15 09:51:08;;;;;;;6.00;1.67;;;8.90;74.40;;;10.12;45.12;102065.00;4813883;29;20047;-82
2021/04/15 09:53:56;;;;;;;5.18;1.70;;;8.80;75.70;;;10.16;45.45;102061.31;4815229;29;20027;-82
2021/04/15 09:57:05;;;;;;;7.35;1.85;;;8.80;76.40;;;10.49;44.39;102056.19;4813509;29;20023;-83
2021/04/15 10:00:01;;;;;;;3.28;1.65;;;9.10;76.00;;;11.45;41.21;102055.97;4819628;29;20026;-84
2021/04/15 10:03:06;;;;;;;8.10;1.80;;;9.80;71.10;;;11.50;41.01;102051.03;4823181;29;20367;-79
2021/04/15 10:05:52;;;;;;;5.07;1.83;;;10.10;69.80;;;11.31;41.41;102061.72;4830301;29;20031;-81
2021/04/15 10:08:40;;;;;;;;;;;10.00;70.30;;;11.45;40.73;102054.00;4833369;29;20023;-82
2021/04/15 10:11:31;;;;;;;5.07;2.05;;;10.00;69.00;;;11.43;42.12;102049.91;4816017;29;20357;-82
2021/04/15 10:14:34;;;;;;;3.90;1.92;;;9.90;71.80;;;11.20;43.41;102052.03;4816363;29;20038;-83
2021/04/15 10:18:14;;;;;;;5.40;2.10;;;9.70;72.70;;;10.73;43.76;102044.56;4832665;29;20067;-82
2021/04/15 10:21:17;;;;;;;5.25;2.70;;;9.60;72.70;;;10.39;45.79;102042.50;4754765;30;20075;-82
2021/04/15 10:24:21;;;;;;;8.25;3.10;;;9.40;75.50;;;10.53;45.79;102049.59;4758783;30;20039;-82
2021/04/15 10:27:55;;;;;;;8.63;3.53;;;9.40;76.10;;;10.47;46.29;102047.28;4827555;29;20046;-85
2021/04/15 10:31:18;;;;;;;6.97;3.13;;;9.20;78.80;;;10.42;47.24;102030.69;4814687;29;20479;-86
2021/04/15 10:34:50;;;;;;;6.30;3.33;;;9.30;78.80;;;10.96;45.59;102037.69;4828968;29;20050;-83
2021/04/15 10:38:13;;;;;;;8.60;3.50;;;9.60;77.30;;;11.65;42.86;102035.72;4815248;29;20035;-84
2021/04/15 10:41:37;;;;;;;4.30;3.10;;;10.30;73.50;;;11.48;43.25;102033.75;4830397;29;20110;-81
2021/04/15 10:44:30;;;;;;;8.10;4.57;;;10.10;73.60;;;10.99;44.51;102040.66;4814520;29;20104;-85
2021/04/15 10:47:04;;;;;;;7.80;4.07;;;10.00;73.90;;;11.38;44.72;102033.25;4831158;29;20113;-83
2021/04/15 10:49:55;;;;;;;7.85;4.30;;;10.10;75.40;;;11.94;45.85;102044.25;4813888;29;20030;-84
2021/04/15 10:53:03;;;;;;;8.10;4.53;;;10.30;79.50;;;12.30;44.14;102035.34;4830292;29;20031;-85
2021/04/15 10:55:36;;;;;;;8.02;4.32;;;10.60;76.00;;;12.24;43.33;102030.28;4784807;29;20039;-82
2021/04/15 10:58:48;;;;;;;7.72;4.57;;;10.60;74.50;;;11.63;43.64;102026.81;4794377;29;20049;-84
2021/04/15 11:01:34;;;;;;;11.38;5.18;;;10.40;75.30;;;11.10;45.58;102030.81;4811150;29;20031;-83
2021/04/15 11:04:25;;;;;;;9.93;5.10;;;10.00;76.30;;;10.42;46.54;102031.50;4811685;29;20563;-85
2021/04/15 11:06:54;;;;;;;11.95;5.75;;;9.60;76.10;;;10.16;47.81;102038.13;4806751;29;20036;-83
2021/04/15 11:09:28;;;;;;;8.20;4.55;;;9.40;78.60;;;10.19;48.05;102038.31;4816462;29;20030;-84
2021/04/15 11:12:15;;;;;;;8.00;4.93;;;9.10;80.90;;;10.37;48.05;102028.84;4813042;29;20041;-83
2021/04/15 11:14:45;;;;;;;9.60;4.18;;;9.10;83.30;;;10.58;45.99;102024.31;4812887;29;20503;-82
2021/04/15 11:17:44;;;;;;;11.75;5.55;;;9.20;79.60;;;10.67;44.90;102023.50;4829443;29;20054;-83
2021/04/15 11:20:19;;;;;;;9.93;5.43;;;9.40;76.20;;;11.63;43.78;102021.22;4829322;29;20045;-84
2021/04/15 11:23:04;;;;;;;12.33;6.00;;;10.10;75.20;;;12.56;40.97;102004.41;4814413;29;20038;-83
2021/04/15 11:25:48;;;;;;;7.25;4.95;;;11.00;70.70;;;13.12;40.13;102000.25;4828889;29;20068;-83
2021/04/15 11:28:23;;;;;;;10.90;5.65;;;11.30;68.90;;;12.89;40.09;101996.94;4813851;29;20030;-84
2021/04/15 11:31:00;;;;;;;;;;;11.40;67.60;;;13.78;39.14;102005.84;4813055;29;20054;-83
2021/04/15 11:33:45;;;;;;;8.70;4.85;;;12.00;68.50;;;14.07;37.99;102005.69;4828686;29;19913;-84
2021/04/15 11:36:35;;;;;;;6.68;4.10;;;12.60;66.00;;;14.94;38.80;102001.34;4827263;29;20474;-83
2021/04/15 11:39:04;;;;;;;8.45;4.70;;;13.20;66.80;;;15.48;36.78;101996.13;4830031;29;20037;-83
2021/04/15 11:41:56;;;;;;;6.07;4.35;;;13.70;62.40;;;14.93;37.10;101988.44;4829729;29;20491;-84
2021/04/15 11:44:54;;;;;;;9.00;4.65;;;13.70;62.00;;;14.37;37.98;101986.66;4805078;29;20049;-82
2021/04/15 11:47:32;;;;;;;10.18;4.47;;;13.20;61.90;;;14.22;38.89;101988.94;4828911;29;20081;-84
2021/04/15 11:50:23;;;;;;;8.02;4.25;;;12.90;63.50;;;13.50;38.30;101981.22;4826865;29;20042;-84
2021/04/15 11:52:53;;;;;;;5.70;3.63;;;12.40;62.10;;;13.95;38.11;101986.84;4830812;29;20111;-84
2021/04/15 11:55:32;;;;;;;7.10;4.18;;;12.50;62.60;;;15.09;36.88;101986.53;4815136;29;20034;-84
2021/04/15 11:58:27;;;;;;;8.13;4.18;;;13.20;61.90;;;14.51;36.69;101985.13;4841617;29;20128;-82
2021/04/15 12:01:00;;;;;;;7.05;4.40;;;13.10;60.20;;;13.81;37.80;101983.53;4812942;29;20030;-83
2021/04/15 12:03:33;;;;;;;9.40;4.28;;;12.60;61.10;;;13.01;39.39;101976.53;4829340;29;20058;-84
2021/04/15 12:06:10;;;;;;;10.00;4.63;;;11.90;63.00;;;12.40;41.44;101981.75;4828365;29;20119;-82
2021/04/15 12:08:39;;;;;;;9.65;5.20;;;11.30;66.50;;;11.80;42.31;101978.41;4826851;29;20201;-83
2021/04/15 12:11:28;;;;;;;7.82;5.03;;;10.90;67.20;;;11.67;41.94;101983.03;4812861;29;20034;-84
2021/04/15 12:14:05;;;;;;;8.13;5.18;;;10.60;68.60;;;11.66;40.96;101972.97;4825555;29;20030;-84
2021/04/15 12:17:09;;;;;;;9.95;4.38;;;10.50;65.40;;;11.58;41.94;101976.63;4794782;29;20035;-84
2021/04/15 12:20:09;;;;;;;13.30;4.93;;;10.50;67.40;;;12.67;41.54;101975.66;4822811;29;20027;-83
2021/04/15 12:23:02;;;;;;;6.07;3.30;;;11.30;69.00;;;13.34;38.27;101980.22;4823893;29;20031;-84
2021/04/15 12:26:19;;;;;;;7.05;3.70;;;11.80;63.60;;;13.16;38.17;101976.75;4829748;29;20118;-85
2021/04/15 12:29:22;;;;;;;7.70;4.03;;;11.80;62.60;;;12.56;40.09;101970.75;4811340;29;20464;-83
2021/04/15 12:32:06;;;;;;;8.93;4.65;;;11.40;63.70;;;12.20;38.96;101965.69;4846535;29;20079;-83
2021/04/15 12:35:07;;;;;;;9.25;4.63;;;11.00;63.90;;;11.64;40.50;101973.31;4813479;29;20535;-84
2021/04/15 12:38:25;;;;;;;7.97;3.45;;;10.60;65.40;;;11.58;40.94;101973.81;4812783;29;20038;-82
2021/04/15 12:41:02;;;;;;;7.63;2.88;;;10.40;65.80;;;11.61;40.41;101979.59;4810542;29;20050;-83
2021/04/15 12:43:38;;;;;;;5.97;3.00;;;10.40;66.50;;;11.73;39.03;101969.69;4828943;29;20660;-83
2021/04/15 12:46:16;;;;;;;5.32;2.53;;;10.40;64.10;;;11.34;39.25;101981.91;4827940;29;20040;-83
2021/04/15 12:51:18;;;;;;;5.03;2.45;;;10.10;64.50;;;11.91;38.98;101972.09;4826965;29;20054;-83
2021/04/15 12:53:47;;;;;;;9.93;3.60;;;10.40;63.90;;;12.40;38.33;101964.94;4818130;29;20031;-85
2021/04/15 12:56:25;;;;;;;5.50;2.92;;;10.80;63.60;;;13.13;37.18;101962.63;4817860;29;20022;-82
2021/04/15 12:58:55;;;;;;;6.38;2.58;;;11.50;61.80;;;13.80;35.00;101967.03;4813880;29;20091;-82
2021/04/15 13:01:21;;;;;;;6.47;2.50;;;12.10;58.40;;;14.58;33.46;101960.03;4832756;29;20067;-82
2021/04/15 13:03:48;;;;;;;6.60;2.50;;;12.80;56.90;;;15.27;34.02;101942.84;4816595;29;20049;-83